createdAt,value
2023-01-23T00:04:19.387Z,3.54
2023-01-23T00:09:19.423Z,3.55
2023-01-23T00:14:19.220Z,3.47
2023-01-23T00:19:19.210Z,3.57
2023-01-23T00:24:19.103Z,3.69
2023-01-23T00:29:19.156Z,3.54
2023-01-23T00:34:18.966Z,3.66
2023-01-23T00:39:18.938Z,3.61
2023-01-23T00:44:18.880Z,3.43
2023-01-23T00:49:19.022Z,3.47
2023-01-23T00:54:18.732Z,3.50
2023-01-23T00:59:18.713Z,3.48
2023-01-23T01:04:18.766Z,3.65
2023-01-23T01:09:18.620Z,3.51
2023-01-23T01:14:18.518Z,3.47
2023-01-23T01:19:18.487Z,3.43
2023-01-23T01:24:18.413Z,3.70
2023-01-23T01:29:18.357Z,3.69
2023-01-23T01:34:18.311Z,3.68
2023-01-23T01:39:18.273Z,3.80
2023-01-23T01:44:18.204Z,3.62
2023-01-23T01:49:18.190Z,3.75
2023-01-23T01:54:18.164Z,3.62
2023-01-23T01:59:18.053Z,3.66
2023-01-23T02:04:18.027Z,3.65
2023-01-23T02:09:17.953Z,3.75
2023-01-23T02:14:17.982Z,3.70
2023-01-23T02:19:17.862Z,3.76
2023-01-23T02:24:17.805Z,3.58
2023-01-23T02:29:17.729Z,3.62
2023-01-23T02:34:17.668Z,3.50
2023-01-23T02:39:17.627Z,3.52
2023-01-23T02:44:17.545Z,3.47
2023-01-23T02:49:17.501Z,3.45
2023-01-23T02:54:17.451Z,3.42
2023-01-23T02:59:17.407Z,3.55
2023-01-23T03:04:17.361Z,3.52
2023-01-23T03:09:17.435Z,3.61
2023-01-23T03:14:17.397Z,3.42
2023-01-23T03:19:17.173Z,3.39
2023-01-23T03:24:17.147Z,3.28
2023-01-23T03:29:17.038Z,3.29
2023-01-23T03:34:17.141Z,3.31
2023-01-23T03:39:17.055Z,3.43
2023-01-23T03:44:16.922Z,3.42
2023-01-23T03:49:16.870Z,3.54
2023-01-23T03:54:16.817Z,3.72
2023-01-23T03:59:16.740Z,3.65
2023-01-23T04:04:16.681Z,3.51
2023-01-23T04:09:16.683Z,3.61
2023-01-23T04:14:16.594Z,3.73
2023-01-23T04:19:16.542Z,3.43
2023-01-23T04:24:16.483Z,3.65
2023-01-23T04:29:16.373Z,3.62
2023-01-23T04:34:16.536Z,3.51
2023-01-23T04:39:16.441Z,3.42
2023-01-23T04:44:16.267Z,3.40
2023-01-23T04:49:16.209Z,3.17
2023-01-23T04:54:16.173Z,3.23
2023-01-23T04:59:16.076Z,3.32
2023-01-23T05:04:16.138Z,3.39
2023-01-23T05:09:16.107Z,3.20
2023-01-23T05:14:15.913Z,3.21
2023-01-23T05:19:15.942Z,3.39
2023-01-23T05:24:15.805Z,3.55
2023-01-23T05:29:15.792Z,3.51
2023-01-23T05:34:15.723Z,3.31
2023-01-23T05:39:15.647Z,3.24
2023-01-23T05:44:15.776Z,3.29
2023-01-23T05:49:15.696Z,3.20
2023-01-23T05:54:15.475Z,3.33
2023-01-23T05:59:15.424Z,3.52
2023-01-23T06:04:15.391Z,3.26
2023-01-23T06:09:15.354Z,3.35
2023-01-23T06:14:15.425Z,3.58
2023-01-23T06:19:15.248Z,3.51
2023-01-23T06:24:15.275Z,3.47
2023-01-23T06:29:15.243Z,3.60
2023-01-23T06:34:15.053Z,3.36
2023-01-23T06:39:15.039Z,3.35
2023-01-23T06:44:15.036Z,3.08
2023-01-23T06:49:14.901Z,3.24
2023-01-23T06:54:14.846Z,3.51
2023-01-23T06:59:14.782Z,3.39
2023-01-23T07:04:14.776Z,3.40
2023-01-23T07:09:14.650Z,3.50
2023-01-23T07:14:14.618Z,3.54
2023-01-23T07:19:14.566Z,3.47
2023-01-23T07:24:14.513Z,3.52
2023-01-23T07:29:14.468Z,3.72
2023-01-23T07:34:14.397Z,3.58
2023-01-23T07:39:14.378Z,3.52
2023-01-23T07:44:14.399Z,3.72
2023-01-23T07:49:14.267Z,3.60
2023-01-23T07:54:14.208Z,3.58
2023-01-23T07:59:14.115Z,3.39
2023-01-23T08:04:14.241Z,3.52
2023-01-23T08:09:14.052Z,3.47
2023-01-23T08:14:13.974Z,3.50
2023-01-23T08:19:13.929Z,3.83
2023-01-23T08:24:13.842Z,3.65
2023-01-23T08:29:13.812Z,3.47
2023-01-23T08:34:13.775Z,3.55
2023-01-23T08:39:13.715Z,3.43
2023-01-23T08:44:13.647Z,3.52
2023-01-23T08:49:13.594Z,3.79
2023-01-23T08:54:13.534Z,3.60
2023-01-23T08:59:13.479Z,3.73
2023-01-23T09:04:13.569Z,3.78
2023-01-23T09:09:13.352Z,4.06
2023-01-23T09:14:13.323Z,3.96
2023-01-23T09:19:13.273Z,3.93
2023-01-23T09:24:13.239Z,3.91
2023-01-23T09:29:13.175Z,4.14
2023-01-23T09:34:13.810Z,4.05
2023-01-23T09:39:13.040Z,4.14
2023-01-23T09:44:12.970Z,4.41
2023-01-23T09:49:12.901Z,4.27
2023-01-23T09:54:12.875Z,4.42
2023-01-23T09:59:12.971Z,4.47
2023-01-23T10:04:12.903Z,4.42
2023-01-23T10:09:12.711Z,4.55
2023-01-23T10:14:12.670Z,4.50
2023-01-23T10:19:12.709Z,4.60
2023-01-23T10:24:12.539Z,4.69
2023-01-23T10:29:12.595Z,4.60
2023-01-23T10:34:12.457Z,4.82
2023-01-23T10:39:12.426Z,4.77
2023-01-23T10:44:12.339Z,4.60
2023-01-23T10:49:12.313Z,4.70
2023-01-23T10:54:16.949Z,4.51
2023-01-23T10:59:13.188Z,4.62
2023-01-23T11:04:12.117Z,4.50
2023-01-23T11:09:12.035Z,4.73
2023-01-23T11:14:12.007Z,4.62
2023-01-23T11:19:11.955Z,4.92
2023-01-23T11:24:11.910Z,4.73
2023-01-23T11:29:11.845Z,4.96
2023-01-23T11:34:11.802Z,4.82
2023-01-23T11:39:11.696Z,5.13
2023-01-23T11:44:14.754Z,5.10
2023-01-23T11:49:13.694Z,4.96
2023-01-23T11:54:11.583Z,5.04
2023-01-23T11:59:11.534Z,4.62
2023-01-23T12:04:11.490Z,4.88
2023-01-23T12:09:11.419Z,4.88
2023-01-23T12:14:11.347Z,4.63
2023-01-23T12:19:11.328Z,4.80
2023-01-23T12:24:11.246Z,4.69
2023-01-23T12:29:12.222Z,4.70
2023-01-23T12:34:11.226Z,4.65
2023-01-23T12:39:11.046Z,4.62
2023-01-23T12:44:11.014Z,4.82
2023-01-23T12:49:10.926Z,4.63
2023-01-23T12:54:10.902Z,4.73
2023-01-23T12:59:10.861Z,4.60
2023-01-23T13:04:10.774Z,4.82
2023-01-23T13:09:17.693Z,4.78
2023-01-23T13:14:11.691Z,4.67
2023-01-23T13:19:10.614Z,5.04
2023-01-23T13:24:10.587Z,4.69
2023-01-23T13:29:10.532Z,4.78
2023-01-23T13:34:15.658Z,4.78
2023-01-23T13:39:11.398Z,4.75
2023-01-23T13:44:10.376Z,4.73
2023-01-23T13:49:10.277Z,4.54
2023-01-23T13:54:10.295Z,4.65
2023-01-23T13:59:10.215Z,4.60
2023-01-23T14:04:10.151Z,4.70
2023-01-23T14:09:10.062Z,4.86
2023-01-23T14:14:10.103Z,4.84
2023-01-23T14:19:10.061Z,4.85
2023-01-23T14:24:09.947Z,5.02
2023-01-23T14:29:09.935Z,4.80
2023-01-23T14:34:12.471Z,4.82
2023-01-23T14:39:09.766Z,4.66
2023-01-23T14:44:09.762Z,4.67
2023-01-23T14:49:09.638Z,4.51
2023-01-23T14:54:10.878Z,4.48
2023-01-23T14:59:09.508Z,4.51
2023-01-23T15:04:09.493Z,4.59
2023-01-23T15:09:09.430Z,4.84
2023-01-23T15:14:09.377Z,4.47
2023-01-23T15:19:09.294Z,4.36
2023-01-23T15:24:09.408Z,4.26
2023-01-23T15:29:09.205Z,4.50
2023-01-23T15:34:09.329Z,4.52
2023-01-23T15:39:09.114Z,4.34
2023-01-23T15:44:09.028Z,4.29
2023-01-23T15:49:23.514Z,4.16
2023-01-23T15:54:09.905Z,4.26
2023-01-23T15:59:09.005Z,4.23
2023-01-23T16:04:08.831Z,4.12
2023-01-23T16:09:08.824Z,4.16
2023-01-23T16:14:08.712Z,3.94
2023-01-23T16:19:08.652Z,4.22
2023-01-23T16:24:08.634Z,4.16
2023-01-23T16:29:13.820Z,4.16
2023-01-23T16:34:09.538Z,3.93
2023-01-23T16:39:08.485Z,3.70
2023-01-23T16:44:08.380Z,3.76
2023-01-23T16:49:08.321Z,3.97
2023-01-23T16:54:18.381Z,4.05
2023-01-23T16:59:09.230Z,4.12
2023-01-23T17:04:08.180Z,3.91
2023-01-23T17:09:08.143Z,3.79
2023-01-23T17:14:08.087Z,3.86
2023-01-23T17:19:07.980Z,3.94
2023-01-23T17:24:07.975Z,3.97
2023-01-23T17:29:07.923Z,3.79
2023-01-23T17:34:07.885Z,3.98
2023-01-23T17:39:07.778Z,3.83
2023-01-23T17:44:07.771Z,3.90
2023-01-23T17:49:07.749Z,3.93
2023-01-23T17:54:07.633Z,4.09
2023-01-23T17:59:07.591Z,4.22
2023-01-23T18:04:07.648Z,3.94
2023-01-23T18:09:07.591Z,3.88
2023-01-23T18:14:07.430Z,3.94
2023-01-23T18:19:07.311Z,3.91
2023-01-23T18:24:07.448Z,3.79
2023-01-23T18:29:07.392Z,4.06
2023-01-23T18:34:07.216Z,4.11
2023-01-23T18:39:07.156Z,3.90
2023-01-23T18:44:07.174Z,4.14
2023-01-23T18:49:07.053Z,3.87
2023-01-23T18:54:07.082Z,4.14
2023-01-23T18:59:12.053Z,4.06
2023-01-23T19:04:07.853Z,4.11
2023-01-23T19:09:06.809Z,4.06
2023-01-23T19:14:07.844Z,4.12
2023-01-23T19:19:15.686Z,3.98
2023-01-23T19:24:07.785Z,4.09
2023-01-23T19:29:20.407Z,4.04
2023-01-23T19:34:07.535Z,3.96
2023-01-23T19:39:06.655Z,3.84
2023-01-23T19:44:06.438Z,4.09
2023-01-23T19:49:06.360Z,4.14
2023-01-23T19:54:06.449Z,4.04
2023-01-23T19:59:06.286Z,3.80
2023-01-23T20:04:06.342Z,3.96
2023-01-23T20:09:06.241Z,3.97
2023-01-23T20:14:06.203Z,4.14
2023-01-23T20:19:06.112Z,4.08
2023-01-23T20:24:07.362Z,4.14
2023-01-23T20:29:05.932Z,4.32
2023-01-23T20:34:05.911Z,4.08
2023-01-23T20:39:05.851Z,4.00
2023-01-23T20:44:05.797Z,4.09
2023-01-23T20:49:05.727Z,4.15
2023-01-23T20:54:05.669Z,4.08
2023-01-23T20:59:05.635Z,4.09
2023-01-23T21:04:05.546Z,3.96
2023-01-23T21:09:05.476Z,4.14
2023-01-23T21:14:05.442Z,4.09
2023-01-23T21:19:05.443Z,4.18
2023-01-23T21:24:05.423Z,4.06
2023-01-23T21:29:05.272Z,4.20
2023-01-23T21:34:05.291Z,4.08
2023-01-23T21:39:05.195Z,4.26
2023-01-23T21:44:05.224Z,4.15
2023-01-23T21:49:05.069Z,4.16
2023-01-23T21:54:05.008Z,4.04
2023-01-23T21:59:04.937Z,4.12
2023-01-23T22:04:05.105Z,4.04
2023-01-23T22:09:04.883Z,3.91
2023-01-23T22:14:04.975Z,4.04
2023-01-23T22:19:08.355Z,4.09
2023-01-23T22:24:04.757Z,4.02
2023-01-23T22:29:04.628Z,4.05
2023-01-23T22:34:04.560Z,4.16
2023-01-23T22:39:04.666Z,3.79
2023-01-23T22:44:04.666Z,4.15
2023-01-23T22:49:04.527Z,3.86
2023-01-23T22:54:04.346Z,3.88
2023-01-23T22:59:04.355Z,3.91
2023-01-23T23:04:04.413Z,4.08
2023-01-23T23:09:04.250Z,4.22
2023-01-23T23:14:04.169Z,4.04
2023-01-23T23:19:04.960Z,4.06
2023-01-23T23:24:04.231Z,4.04
2023-01-23T23:29:04.228Z,3.91
2023-01-23T23:34:03.957Z,4.12
2023-01-23T23:39:03.877Z,3.75
2023-01-23T23:44:03.847Z,3.96
2023-01-23T23:49:03.770Z,4.16
2023-01-23T23:54:03.703Z,3.91
2023-01-23T23:59:03.682Z,3.69
